Time;durP1;ratioP1;P1;durP2;ratioP2;P2;SDS_P1;SDS_P2;PMS_P1;PMS_P2;Temp;Humidity;BMP_temperature;BMP_pressure;BME280_temperature;BME280_humidity;BME280_pressure;Samples;Min_cycle;Max_cycle;Signal;HPM_P1;HPM_P2
2022/11/25 00:01:14;;;;;;;87.50;45.35;;;;;;;0.21;96.02;99573.31;1718277;80;20952;-79
2022/11/25 00:03:40;;;;;;;87.88;44.08;;;;;;;0.24;96.11;99569.88;1700270;82;21301;-79
2022/11/25 00:06:19;;;;;;;84.28;43.58;;;;;;;0.30;96.27;99574.11;1719574;82;21473;-79
2022/11/25 00:08:49;;;;;;;86.60;44.38;;;;;;;0.34;96.36;99579.66;1712904;82;21108;-79
2022/11/25 00:11:18;;;;;;;84.50;43.50;;;;;;;0.36;96.32;99582.61;1710109;82;20919;-79
2022/11/25 00:13:46;;;;;;;82.92;46.28;;;;;;;0.36;96.20;99574.05;1690678;83;20943;-79
2022/11/25 00:16:19;;;;;;;87.97;44.77;;;;;;;0.43;96.40;99580.42;1698677;83;20939;-79
2022/11/25 00:18:52;;;;;;;81.00;41.77;;;;;;;0.47;96.30;99580.39;1708431;82;20958;-79
2022/11/25 00:21:22;;;;;;;84.62;43.58;;;;;;;0.45;96.16;99579.14;1709508;80;21556;-79
2022/11/25 00:23:55;;;;;;;83.25;43.13;;;;;;;0.45;96.15;99586.84;1711135;82;20951;-79
2022/11/25 00:26:24;;;;;;;78.28;43.55;;;;;;;0.43;96.06;99583.42;1713824;82;20943;-79
2022/11/25 00:28:51;;;;;;;80.47;42.90;;;;;;;0.46;96.14;99582.12;1711121;80;20975;-79
2022/11/25 00:31:21;;;;;;;81.87;42.03;;;;;;;0.48;96.11;99586.81;1711419;82;20925;-79
2022/11/25 00:33:49;;;;;;;88.15;43.23;;;;;;;0.47;95.96;99582.96;1705366;82;21476;-79
2022/11/25 00:36:23;;;;;;;82.17;41.65;;;;;;;0.46;96.04;99585.97;1711439;82;20951;-79
2022/11/25 00:38:56;;;;;;;83.10;42.67;;;;;;;0.34;96.34;99589.94;1709344;82;20990;-79
2022/11/25 00:46:57;;;;;;;74.53;39.65;;;;;;;0.28;96.76;99597.66;1699290;82;22561;-79
2022/11/25 00:49:24;;;;;;;77.80;39.90;;;;;;;0.27;96.57;99598.53;1698232;82;21159;-79
2022/11/25 00:51:51;;;;;;;71.10;39.83;;;;;;;0.25;96.55;99606.67;1715515;82;20915;-79
2022/11/25 00:54:18;;;;;;;78.75;40.10;;;;;;;0.22;96.45;99604.98;1701870;82;21477;-79
2022/11/25 00:56:45;;;;;;;78.42;43.08;;;;;;;0.17;96.42;99602.46;1689054;81;21477;-79
2022/11/25 00:59:11;;;;;;;75.83;42.50;;;;;;;0.29;95.98;99607.09;1694625;83;21136;-78
2022/11/25 01:01:38;;;;;;;77.17;42.80;;;;;;;0.25;96.03;99604.11;1691029;83;20927;-78
2022/11/25 01:04:06;;;;;;;81.73;43.77;;;;;;;0.16;96.00;99608.44;1728106;81;20959;-78
2022/11/25 01:06:34;;;;;;;79.87;42.38;;;;;;;0.09;96.34;99606.80;1714121;82;21034;-78
2022/11/25 01:09:01;;;;;;;78.15;40.80;;;;;;;0.06;96.25;99606.81;1710344;82;20984;-78
2022/11/25 01:11:28;;;;;;;82.47;43.80;;;;;;;0.04;96.44;99613.67;1699304;82;21059;-78
2022/11/25 01:13:55;;;;;;;95.70;46.65;;;;;;;0.08;96.77;99614.05;1681434;83;21497;-78
2022/11/25 01:16:22;;;;;;;78.45;41.53;;;;;;;0.24;96.33;99608.83;1757317;80;20992;-79
2022/11/25 01:18:50;;;;;;;82.00;44.33;;;;;;;0.21;95.94;99613.12;1757111;78;20981;-79
2022/11/25 01:21:20;;;;;;;87.47;45.03;;;;;;;0.14;95.91;99620.46;1713875;82;20888;-78
2022/11/25 01:23:48;;;;;;;81.80;42.88;;;;;;;0.08;96.03;99620.47;1717600;82;21010;-78
2022/11/25 01:26:22;;;;;;;76.67;41.85;;;;;;;0.04;96.04;99618.80;1703176;82;20926;-78
2022/11/25 01:28:54;;;;;;;78.15;42.45;;;;;;;0.04;96.20;99615.39;1678917;83;21036;-78
2022/11/25 01:31:24;;;;;;;83.72;42.85;;;;;;;0.05;96.28;99623.06;1693749;82;21452;-78
2022/11/25 01:33:58;;;;;;;83.27;43.25;;;;;;;0.02;96.26;99619.23;1714254;82;20935;-78
2022/11/25 01:36:25;;;;;;;94.58;46.75;;;;;;;0.01;96.33;99621.39;1712258;82;21852;-79
2022/11/25 01:38:55;;;;;;;93.65;47.50;;;;;;;-0.02;96.35;99618.84;1762362;78;20914;-78
2022/11/25 01:41:24;;;;;;;98.35;49.03;;;;;;;-0.07;96.24;99618.02;1763368;80;20939;-78
2022/11/25 01:44:08;;;;;;;102.22;49.70;;;;;;;-0.12;96.25;99623.16;1759011;80;20907;-78
2022/11/25 01:47:15;;;;;;;94.00;47.10;;;;;;;-0.14;96.32;99626.59;1754453;80;20922;-78
2022/11/25 01:50:00;;;;;;;104.63;47.83;;;;;;;-0.16;96.41;99620.64;1728316;80;50100;-79
2022/11/25 01:52:34;;;;;;;91.55;46.05;;;;;;;-0.18;96.47;99627.05;1760183;80;21067;-78
2022/11/25 01:55:09;;;;;;;90.75;46.58;;;;;;;-0.20;96.42;99624.91;1745975;80;20888;-78
2022/11/25 01:57:55;;;;;;;89.72;44.60;;;;;;;-0.17;96.47;99622.77;1750475;80;20954;-78
2022/11/25 02:00:22;;;;;;;86.77;46.17;;;;;;;-0.12;96.60;99630.02;1733805;78;20935;-78
2022/11/25 02:02:53;;;;;;;91.32;43.95;;;;;;;-0.10;96.46;99630.87;1742732;80;21894;-78
2022/11/25 02:05:28;;;;;;;93.62;45.60;;;;;;;-0.07;96.61;99623.15;1736889;80;20864;-78
2022/11/25 02:07:56;;;;;;;92.60;45.60;;;;;;;-0.09;96.44;99622.30;1665674;85;20929;-79
2022/11/25 02:10:28;;;;;;;95.17;44.42;;;;;;;-0.08;96.44;99626.59;1657809;84;20932;-79
2022/11/25 02:12:55;;;;;;;85.45;44.03;;;;;;;-0.07;96.52;99624.43;1659893;84;21044;-79
2022/11/25 02:15:22;;;;;;;94.97;45.13;;;;;;;-0.06;96.46;99627.41;1664841;84;21177;-79
2022/11/25 02:17:49;;;;;;;85.35;42.50;;;;;;;-0.05;96.48;99632.98;1663203;85;21449;-79
2022/11/25 02:20:20;;;;;;;95.53;44.85;;;;;;;0.02;96.39;99633.35;1657352;85;21003;-79
2022/11/25 02:23:21;;;;;;;91.35;45.38;;;;;;;0.06;96.26;99640.19;1671738;84;21018;-79
2022/11/25 02:25:47;;;;;;;88.17;43.78;;;;;;;0.04;96.27;99635.48;1667769;84;21008;-79
2022/11/25 02:28:21;;;;;;;91.22;46.60;;;;;;;-0.01;96.32;99643.64;1671701;85;21059;-79
2022/11/25 02:30:49;;;;;;;86.40;43.98;;;;;;;0.01;96.40;99641.92;1655689;84;21517;-79
2022/11/25 02:33:16;;;;;;;88.20;44.77;;;;;;;0.03;96.12;99645.34;1668531;85;21576;-78
2022/11/25 02:35:57;;;;;;;84.65;41.50;;;;;;;0.01;96.17;99650.91;1632100;84;21028;-78
2022/11/25 02:38:38;;;;;;;84.32;41.80;;;;;;;0.04;96.33;99652.17;1659951;85;20941;-78
2022/11/25 02:41:18;;;;;;;79.17;42.55;;;;;;;0.09;96.50;99647.88;1667398;84;21133;-78
2022/11/25 02:43:46;;;;;;;75.17;38.48;;;;;;;0.13;96.48;99654.68;1671054;83;21459;-79
2022/11/25 02:46:19;;;;;;;86.90;43.15;;;;;;;0.15;96.45;99655.53;1741061;78;20978;-79
2022/11/25 02:48:46;;;;;;;86.22;44.05;;;;;;;0.16;96.26;99653.38;1736048;81;20986;-79
2022/11/25 02:51:16;;;;;;;;;;;;;;;0.15;96.22;99652.96;1744035;80;20997;-79
2022/11/25 02:53:43;;;;;;;90.67;45.25;;;;;;;0.17;96.32;99646.11;1735824;79;21169;-78
2022/11/25 02:56:11;;;;;;;95.87;47.08;;;;;;;0.23;96.38;99646.50;1736460;79;20944;-78
2022/11/25 02:58:38;;;;;;;93.85;46.20;;;;;;;0.27;96.37;99649.89;1745602;81;20880;-79
2022/11/25 03:01:05;;;;;;;96.87;48.92;;;;;;;0.24;96.49;99628.94;1695085;82;21101;-79
2022/11/25 03:03:32;;;;;;;86.70;44.03;;;;;;;0.24;96.49;99628.94;1687664;83;20987;-79
2022/11/25 03:05:59;;;;;;;88.27;42.73;;;;;;;0.39;96.54;99649.80;1703870;82;21135;-79
2022/11/25 03:08:25;;;;;;;77.37;40.90;;;;;;;0.37;96.29;99650.27;1710235;82;20966;-79
2022/11/25 03:10:52;;;;;;;93.27;45.40;;;;;;;0.36;96.17;99656.25;1711162;82;20962;-79
2022/11/25 03:13:19;;;;;;;85.70;43.17;;;;;;;0.32;95.88;99660.99;1714676;82;21477;-79
2022/11/25 03:15:47;;;;;;;97.82;45.55;;;;;;;0.28;95.97;99652.88;1712675;82;20999;-79
2022/11/25 03:18:13;;;;;;;91.82;44.05;;;;;;;0.29;96.05;99655.45;1709570;82;21054;-79
2022/11/25 03:20:40;;;;;;;81.30;43.05;;;;;;;0.27;95.94;99660.17;1713706;81;20923;-79
2022/11/25 03:23:07;;;;;;;81.67;42.90;;;;;;;0.27;95.94;99664.02;1714886;82;20864;-79
2022/11/25 03:25:35;;;;;;;87.80;44.38;;;;;;;0.23;95.88;99667.48;1688886;83;21591;-79
2022/11/25 03:28:02;;;;;;;;;;;;;;;0.13;95.87;99664.95;1682115;82;20865;-78
2022/11/25 03:30:29;;;;;;;80.55;40.90;;;;;;;0.11;96.15;99666.70;1691897;83;21338;-79
2022/11/25 03:32:56;;;;;;;87.55;45.33;;;;;;;0.09;96.25;99661.14;1702455;82;20898;-78
2022/11/25 03:35:23;;;;;;;91.92;43.70;;;;;;;0.03;96.16;99653.05;1706495;82;20872;-78
2022/11/25 03:37:49;;;;;;;91.72;44.05;;;;;;;-0.01;96.26;99661.61;1702262;82;20938;-78
2022/11/25 03:40:16;;;;;;;90.83;46.07;;;;;;;0.01;96.30;99660.33;1712120;82;20951;-79
2022/11/25 03:42:44;;;;;;;94.10;46.80;;;;;;;-0.01;96.32;99669.31;1717310;81;21085;-79
2022/11/25 03:45:14;;;;;;;88.52;45.23;;;;;;;-0.03;96.30;99667.17;1723700;80;21496;-79
2022/11/25 03:47:42;;;;;;;104.35;47.05;;;;;;;-0.04;96.30;99671.89;1688356;82;20893;-79
2022/11/25 03:50:12;;;;;;;95.00;46.08;;;;;;;-0.18;96.67;99669.83;1739191;81;21507;-79
2022/11/25 03:52:39;;;;;;;86.35;43.42;;;;;;;-0.22;97.24;99669.00;1744572;78;21539;-79
2022/11/25 03:55:07;;;;;;;92.37;44.18;;;;;;;-0.18;97.37;99667.27;1733547;79;21051;-79
2022/11/25 03:57:34;;;;;;;87.00;43.63;;;;;;;-0.18;97.36;99676.25;1746465;80;20970;-79
2022/11/25 04:00:01;;;;;;;89.35;45.03;;;;;;;-0.17;97.40;99677.94;1735507;80;20958;-79
2022/11/25 04:02:28;;;;;;;86.10;45.52;;;;;;;-0.10;97.38;99673.22;1736105;80;21499;-79
2022/11/25 04:04:55;;;;;;;89.77;44.42;;;;;;;-0.03;96.77;99676.16;1735043;80;20911;-79
2022/11/25 04:07:21;;;;;;;94.47;47.40;;;;;;;-0.04;96.66;99674.46;1750740;80;21054;-79
2022/11/25 04:09:48;;;;;;;92.87;47.17;;;;;;;-0.03;96.69;99676.16;1749499;80;21407;-79
2022/11/25 04:14:59;;;;;;;90.77;46.95;;;;;;;0.01;96.68;99677.87;1701221;82;20884;-79
2022/11/25 04:17:26;;;;;;;101.70;48.17;;;;;;;0.03;96.66;99683.85;1710175;81;20919;-79
2022/11/25 04:19:53;;;;;;;91.65;45.45;;;;;;;-0.04;96.64;99682.16;1699494;83;21709;-80
2022/11/25 04:22:20;;;;;;;102.80;49.48;;;;;;;-0.03;96.80;99687.70;1703821;82;20887;-80
2022/11/25 04:24:46;;;;;;;92.55;45.17;;;;;;;-0.03;96.66;99683.86;1703992;82;20975;-79
2022/11/25 04:27:13;;;;;;;90.80;47.37;;;;;;;-0.07;96.82;99687.31;1698261;82;20939;-79
2022/11/25 04:29:40;;;;;;;105.30;48.23;;;;;;;-0.08;96.82;99692.03;1695961;82;20968;-79
2022/11/25 04:32:06;;;;;;;98.07;46.97;;;;;;;-0.20;97.12;99696.77;1708388;82;21099;-79
2022/11/25 04:34:33;;;;;;;97.08;46.13;;;;;;;-0.29;97.48;99700.22;1692271;82;20915;-79
2022/11/25 04:37:00;;;;;;;89.77;45.15;;;;;;;-0.29;97.61;99701.94;1707082;80;20954;-79
2022/11/25 04:39:27;;;;;;;91.55;44.80;;;;;;;-0.30;97.74;99701.09;1713943;80;20969;-79
2022/11/25 04:42:30;;;;;;;91.92;44.98;;;;;;;-0.29;97.75;99696.81;1709047;81;20903;-80
2022/11/25 04:44:22;;;;;;;91.53;43.85;;;;;;;-0.27;97.91;99695.10;1709067;82;21194;-80
2022/11/25 04:46:49;;;;;;;95.80;47.90;;;;;;;-0.25;97.89;99694.23;1707362;82;21064;-80
2022/11/25 04:49:16;;;;;;;88.70;45.55;;;;;;;-0.23;97.89;99696.34;1710598;81;20965;-80
2022/11/25 04:51:42;;;;;;;74.80;40.05;;;;;;;-0.20;97.93;99701.05;1712563;82;20923;-80
2022/11/25 04:54:09;;;;;;;80.67;40.67;;;;;;;-0.24;98.09;99698.50;1748573;80;20903;-80
2022/11/25 04:56:36;;;;;;;86.85;43.92;;;;;;;-0.20;97.91;99695.92;1747212;80;21053;-80
2022/11/25 05:01:48;;;;;;;89.00;45.75;;;;;;;-0.20;97.87;99703.61;1741161;80;21496;-80
2022/11/25 05:04:15;;;;;;;74.85;39.25;;;;;;;-0.23;97.79;99702.77;1734517;80;20943;-79
2022/11/25 05:06:41;;;;;;;79.07;39.57;;;;;;;-0.21;97.78;99707.05;1743568;79;21468;-80
2022/11/25 05:09:10;;;;;;;71.97;37.98;;;;;;;-0.21;97.83;99712.19;1740901;79;21079;-80
2022/11/25 05:11:36;;;;;;;70.92;36.55;;;;;;;-0.17;97.95;99712.58;1747746;78;21401;-79
2022/11/25 05:14:04;;;;;;;81.08;40.43;;;;;;;-0.13;98.04;99713.02;1747134;80;20882;-79
2022/11/25 05:16:30;;;;;;;69.17;37.20;;;;;;;-0.08;97.98;99718.98;1714676;82;20974;-79
2022/11/25 05:18:57;;;;;;;61.30;32.83;;;;;;;-0.08;97.98;99718.98;1680439;83;21003;-79
2022/11/25 05:21:24;;;;;;;74.17;40.53;;;;;;;-0.02;98.09;99717.67;1713363;82;22216;-79
2022/11/25 05:23:51;;;;;;;74.97;38.60;;;;;;;0.00;97.94;99722.38;1683005;82;21457;-79
2022/11/25 05:26:18;;;;;;;73.95;38.28;;;;;;;0.01;97.85;99729.20;1691795;82;20938;-79
2022/11/25 05:28:44;;;;;;;76.10;41.30;;;;;;;0.02;97.87;99727.05;1717010;82;20864;-80
2022/11/25 05:31:12;;;;;;;81.22;43.52;;;;;;;0.05;97.93;99730.88;1690577;82;21443;-80
2022/11/25 05:33:38;;;;;;;83.47;45.08;;;;;;;0.08;97.88;99723.16;1698841;81;21488;-79
2022/11/25 05:36:06;;;;;;;85.80;42.05;;;;;;;0.10;97.84;99718.88;1694784;80;20918;-79
2022/11/25 05:38:32;;;;;;;80.92;41.73;;;;;;;0.12;97.80;99727.44;1692557;82;20963;-80
2022/11/25 05:41:05;;;;;;;93.10;45.27;;;;;;;0.14;97.82;99729.58;1692269;82;21413;-80
2022/11/25 05:43:32;;;;;;;84.60;46.33;;;;;;;0.20;98.09;99733.39;1688399;82;20892;-80
2022/11/25 05:45:59;;;;;;;85.35;44.40;;;;;;;0.28;98.08;99731.20;1716534;81;21519;-80
2022/11/25 05:48:25;;;;;;;83.72;44.98;;;;;;;0.26;98.19;99731.66;1688909;82;20963;-80
2022/11/25 05:50:52;;;;;;;79.40;42.83;;;;;;;0.25;97.92;99732.50;1693194;82;20911;-79
2022/11/25 05:53:19;;;;;;;79.43;43.30;;;;;;;0.24;97.86;99739.36;1697593;82;21564;-80
2022/11/25 05:55:58;;;;;;;72.42;40.63;;;;;;;0.22;97.72;99733.37;1701238;81;21143;-80
2022/11/25 05:58:25;;;;;;;78.40;40.45;;;;;;;0.23;97.73;99740.67;1717695;81;21115;-80
2022/11/25 06:00:52;;;;;;;72.55;39.83;;;;;;;0.28;97.66;99744.04;1716291;81;20926;-80
2022/11/25 06:03:18;;;;;;;76.30;41.17;;;;;;;0.26;97.72;99739.37;1721527;82;20895;-80
2022/11/25 06:05:45;;;;;;;76.70;41.70;;;;;;;0.25;97.82;99742.34;1723425;82;20954;-80
2022/11/25 06:08:12;;;;;;;69.97;39.08;;;;;;;0.35;97.99;99747.02;1723525;82;21201;-81
2022/11/25 06:10:40;;;;;;;73.20;39.18;;;;;;;0.38;97.79;99749.56;1727183;82;22838;-80
2022/11/25 06:13:07;;;;;;;;;;;;;;;0.39;97.81;99747.41;1762168;80;20866;-80
2022/11/25 06:15:36;;;;;;;75.03;37.30;;;;;;;0.43;97.79;99749.11;1765325;79;20431;-80
2022/11/25 06:18:03;;;;;;;65.75;37.03;;;;;;;0.42;97.75;99748.67;1759238;80;20942;-80
2022/11/25 06:20:30;;;;;;;67.40;35.28;;;;;;;0.44;97.71;99754.66;1761361;79;21536;-81
2022/11/25 06:22:57;;;;;;;65.83;34.27;;;;;;;0.47;97.75;99744.36;1727289;81;21432;-80
2022/11/25 06:25:25;;;;;;;61.30;35.55;;;;;;;0.46;97.74;99752.95;1701536;81;20902;-81
2022/11/25 06:27:52;;;;;;;60.90;33.75;;;;;;;0.48;97.80;99747.38;1712762;82;21391;-80
2022/11/25 06:30:19;;;;;;;54.90;31.75;;;;;;;0.51;97.86;99743.94;1724049;81;27195;-81
2022/11/25 06:32:46;;;;;;;55.92;30.25;;;;;;;0.50;97.63;99741.77;1739468;80;20984;-80
2022/11/25 06:35:13;;;;;;;52.90;31.15;;;;;;;0.51;97.64;99748.64;1703208;82;20997;-82
2022/11/25 06:37:40;;;;;;;56.85;29.10;;;;;;;0.54;97.80;99753.75;1737676;80;21496;-79
2022/11/25 06:40:08;;;;;;;58.68;31.57;;;;;;;0.54;97.81;99748.62;1733952;79;20934;-81
2022/11/25 06:42:37;;;;;;;48.87;29.70;;;;;;;0.57;97.71;99748.59;1756840;79;20998;-80
2022/11/25 06:45:05;;;;;;;59.38;31.85;;;;;;;0.56;97.62;99755.89;1769815;79;20996;-81
2022/11/25 06:47:32;;;;;;;60.23;31.30;;;;;;;0.55;97.50;99746.45;1765772;79;21738;-81
2022/11/25 06:49:59;;;;;;;63.33;34.05;;;;;;;0.56;97.45;99750.75;1768495;78;21092;-81
2022/11/25 06:52:25;;;;;;;61.45;33.42;;;;;;;0.60;97.52;99748.57;1756737;79;20920;-81
2022/11/25 06:54:52;;;;;;;66.30;33.60;;;;;;;0.61;97.51;99747.70;1762606;80;21528;-81
2022/11/25 06:57:19;;;;;;;68.28;38.23;;;;;;;0.61;97.64;99737.42;1759020;80;21926;-81
2022/11/25 06:59:46;;;;;;;75.87;38.92;;;;;;;0.59;97.67;99739.17;1741208;80;21955;-83
2022/11/25 07:02:13;;;;;;;82.25;41.95;;;;;;;0.62;97.62;99740.43;1713992;82;20883;-81
2022/11/25 07:04:39;;;;;;;96.77;44.00;;;;;;;0.63;97.65;99744.69;1715322;82;20919;-82
2022/11/25 07:07:07;;;;;;;82.72;40.35;;;;;;;0.63;97.68;99743.41;1709673;82;21010;-81
2022/11/25 07:09:34;;;;;;;79.77;35.08;;;;;;;0.65;97.84;99748.12;1699917;82;21527;-79
2022/11/25 07:12:01;;;;;;;80.12;35.80;;;;;;;0.66;97.95;99747.24;1710184;82;21222;-91
2022/11/25 07:14:41;;;;;;;88.35;34.88;;;;;;;0.71;98.05;99757.94;1679807;83;20963;-77
2022/11/25 07:17:11;;;;;;;82.65;35.33;;;;;;;0.74;98.05;99755.34;1704217;81;20970;-75
2022/11/25 07:19:37;;;;;;;85.80;36.13;;;;;;;0.76;97.86;99762.63;1706182;82;20970;-78
2022/11/25 07:22:04;;;;;;;79.40;33.23;;;;;;;0.77;97.91;99760.46;1696649;82;23438;-78
2022/11/25 07:24:32;;;;;;;80.30;35.80;;;;;;;0.80;97.73;99763.01;1704727;82;21616;-75
2022/11/25 07:26:59;;;;;;;82.97;34.53;;;;;;;0.80;97.96;99764.30;1703826;83;21509;-76
2022/11/25 07:29:29;;;;;;;82.72;34.95;;;;;;;0.89;98.10;99764.22;1707844;82;20994;-78
2022/11/25 07:31:56;;;;;;;82.15;35.05;;;;;;;0.92;97.87;99767.20;1714600;81;20943;-78
2022/11/25 07:34:23;;;;;;;81.47;36.30;;;;;;;0.93;98.00;99774.92;1699377;82;20954;-76
2022/11/25 07:36:50;;;;;;;83.75;37.13;;;;;;;0.94;97.86;99768.90;1688325;83;21868;-78
2022/11/25 07:39:21;;;;;;;88.30;39.18;;;;;;;0.95;97.88;99770.59;1705413;82;20853;-77
2022/11/25 07:41:52;;;;;;;83.67;36.03;;;;;;;0.99;97.99;99773.58;1705872;83;20895;-79
2022/11/25 07:44:19;;;;;;;87.45;38.20;;;;;;;0.98;98.12;99768.03;1706629;82;21536;-78
2022/11/25 07:46:49;;;;;;;83.82;35.90;;;;;;;1.01;97.96;99769.70;1701060;82;20904;-85
2022/11/25 07:49:20;;;;;;;76.67;35.80;;;;;;;0.98;98.08;99768.44;1698075;82;21119;-88
2022/11/25 07:51:52;;;;;;;85.85;33.80;;;;;;;1.02;97.83;99767.13;1709412;82;20860;-89
2022/11/25 07:54:21;;;;;;;83.97;33.40;;;;;;;1.03;97.74;99772.67;1705623;82;20955;-88
2022/11/25 07:56:49;;;;;;;81.72;35.63;;;;;;;1.07;97.57;99773.09;1684750;82;20932;-83
2022/11/25 07:59:21;;;;;;;87.05;35.88;;;;;;;1.09;97.53;99762.77;1681205;83;21006;-84
2022/11/25 08:01:54;;;;;;;98.78;39.25;;;;;;;1.11;97.72;99767.05;1678103;84;21052;-86
2022/11/25 08:04:21;;;;;;;94.62;37.73;;;;;;;1.21;97.93;99773.42;1675922;83;20971;-85
2022/11/25 08:06:49;;;;;;;;;;;;;;;1.28;97.97;99773.77;1729323;80;20966;-89
2022/11/25 08:09:19;;;;;;;79.67;34.33;;;;;;;1.39;97.98;99774.53;1719045;81;20099;-88
2022/11/25 08:11:47;;;;;;;79.00;35.25;;;;;;;1.43;97.64;99780.48;1724427;80;20888;-85
2022/11/25 08:14:17;;;;;;;80.95;34.00;;;;;;;1.44;97.47;99785.64;1726374;80;21023;-81
2022/11/25 08:16:44;;;;;;;81.05;34.13;;;;;;;1.48;97.40;99770.57;1720596;82;21940;-81
2022/11/25 08:19:15;;;;;;;80.50;34.88;;;;;;;1.50;97.37;99775.28;1716960;80;21033;-89
2022/11/25 08:21:42;;;;;;;86.47;34.63;;;;;;;1.52;97.41;99773.55;1678330;83;21023;-88
2022/11/25 08:24:18;;;;;;;79.10;36.10;;;;;;;1.59;97.66;99784.62;1679834;83;21521;-80
2022/11/25 08:26:52;;;;;;;80.03;33.38;;;;;;;1.71;97.92;99783.64;1724093;82;21147;-90
2022/11/25 08:29:19;;;;;;;96.92;36.20;;;;;;;1.75;97.52;99782.77;1722113;81;21038;-88
2022/11/25 08:31:46;;;;;;;84.10;35.78;;;;;;;1.76;97.25;99787.91;1725664;80;23702;-81
2022/11/25 08:34:22;;;;;;;84.83;36.80;;;;;;;1.76;97.15;99783.17;1721856;80;22387;-87
2022/11/25 08:36:49;;;;;;;84.28;39.30;;;;;;;1.80;97.06;99788.72;1723759;80;22015;-84
2022/11/25 08:39:18;;;;;;;79.13;38.87;;;;;;;1.82;97.14;99786.99;1718355;80;21025;-83
2022/11/25 08:41:44;;;;;;;79.40;35.45;;;;;;;1.86;97.03;99786.08;1726886;80;20995;-87
2022/11/25 08:44:12;;;;;;;82.92;35.33;;;;;;;1.90;96.93;99790.31;1718014;81;20863;-81
2022/11/25 08:46:39;;;;;;;136.62;37.75;;;;;;;1.92;96.94;99784.72;1722886;80;20890;-82
2022/11/25 08:49:10;;;;;;;130.78;39.92;;;;;;;1.92;96.89;99787.29;1729969;81;20974;-86
2022/11/25 08:51:39;;;;;;;111.00;39.00;;;;;;;1.92;96.90;99788.58;1711378;80;21904;-86
2022/11/25 08:54:07;;;;;;;84.52;36.80;;;;;;;1.98;97.24;99794.94;1683596;83;21500;-86
2022/11/25 09:09:53;;;;;;;70.35;32.75;;;;;;;2.23;97.81;99803.68;1534739;91;21948;-85
2022/11/25 09:12:20;;;;;;;74.12;33.83;;;;;;;2.21;97.54;99813.14;1524935;91;21520;-87
2022/11/25 09:14:49;;;;;;;73.10;34.07;;;;;;;2.17;97.45;99808.91;1529936;91;20983;-88
2022/11/25 09:17:15;;;;;;;69.87;33.42;;;;;;;2.11;96.98;99802.55;1505542;91;21093;-86
2022/11/25 09:22:45;;;;;;;75.37;34.35;;;;;;;2.03;96.61;99808.22;1531830;91;20998;-91
2022/11/25 09:25:16;;;;;;;68.17;32.98;;;;;;;2.04;97.15;99812.48;1550499;89;21515;-90
2022/11/25 09:27:45;;;;;;;63.25;31.50;;;;;;;2.16;97.37;99811.08;1567628;88;21007;-86
2022/11/25 09:30:12;;;;;;;72.73;31.87;;;;;;;2.18;97.89;99818.33;1588456;87;21007;-84
2022/11/25 09:32:39;;;;;;;70.62;34.67;;;;;;;2.41;97.65;99815.06;1597481;88;22658;-86
2022/11/25 09:35:09;;;;;;;66.83;32.87;;;;;;;2.45;97.71;99814.58;1589347;88;21069;-86
2022/11/25 09:37:38;;;;;;;68.70;34.45;;;;;;;2.52;97.73;99816.63;1566660;88;21636;-81
2022/11/25 09:40:07;;;;;;;69.62;33.48;;;;;;;2.54;97.67;99816.19;1591366;88;20971;-78
2022/11/25 09:49:21;;;;;;;72.22;32.70;;;;;;;2.66;97.09;99812.14;1668998;84;20972;-81
2022/11/25 09:52:08;;;;;;;69.25;33.42;;;;;;;2.66;96.58;99816.01;1665294;84;21014;-82
2022/11/25 09:54:40;;;;;;;67.75;33.23;;;;;;;2.68;96.65;99815.56;1667498;83;20950;-77
2022/11/25 09:57:43;;;;;;;63.52;32.33;;;;;;;2.71;96.77;99818.53;1674134;84;20947;-77
2022/11/25 10:00:20;;;;;;;62.98;31.82;;;;;;;2.74;96.96;99818.05;1668443;84;21268;-78
2022/11/25 10:03:01;;;;;;;59.85;30.88;;;;;;;2.78;96.89;99820.17;1665154;84;20949;-86
2022/11/25 10:17:50;;;;;;;59.67;29.57;;;;;;;2.87;96.38;99820.88;1819498;75;22855;-81
2022/11/25 10:20:31;;;;;;;60.92;29.72;;;;;;;2.72;96.02;99825.38;1729079;81;21591;-83
2022/11/25 10:23:09;;;;;;;55.38;29.25;;;;;;;2.61;95.89;99831.56;1719669;81;21900;-80
2022/11/25 10:25:59;;;;;;;61.05;32.35;;;;;;;2.49;95.66;99818.81;1695059;83;20926;-80
2022/11/25 10:28:33;;;;;;;58.80;30.00;;;;;;;2.44;96.08;99824.05;1590932;89;22005;-77
2022/11/25 10:31:19;;;;;;;64.67;30.88;;;;;;;2.55;96.78;99823.03;1582305;89;21025;-76
2022/11/25 10:33:53;;;;;;;57.98;31.55;;;;;;;2.63;96.76;99818.63;1584569;88;21194;-75
2022/11/25 10:36:37;;;;;;;57.48;29.52;;;;;;;2.74;96.72;99819.34;1587121;89;21111;-75
2022/11/25 10:39:15;;;;;;;61.42;30.30;;;;;;;2.78;96.40;99821.02;1593306;88;21072;-76
2022/11/25 10:42:06;;;;;;;60.12;30.65;;;;;;;2.78;96.05;99823.59;1599319;88;21061;-74
2022/11/25 10:44:36;;;;;;;58.55;30.95;;;;;;;2.85;96.42;99829.06;1589803;88;21083;-75
2022/11/25 10:47:41;;;;;;;63.83;30.85;;;;;;;2.96;96.46;99829.36;1584161;88;21243;-75
2022/11/25 10:50:37;;;;;;;61.50;33.65;;;;;;;3.03;96.18;99819.38;1539018;91;21048;-77
2022/11/25 10:55:33;;;;;;;64.32;33.45;;;;;;;2.83;95.12;99825.68;1817514;76;22210;-76
2022/11/25 10:58:28;;;;;;;58.08;31.15;;;;;;;2.74;95.05;99829.65;1821290;77;20954;-76
2022/11/25 11:01:08;;;;;;;55.78;30.65;;;;;;;2.70;95.20;99828.00;1814188;77;21112;-77
2022/11/25 11:03:36;;;;;;;71.02;33.63;;;;;;;2.70;95.62;99830.58;1818097;77;21638;-77
2022/11/25 11:06:02;;;;;;;67.62;31.87;;;;;;;2.80;96.13;99827.02;1768372;79;21068;-76
2022/11/25 11:08:38;;;;;;;62.37;32.87;;;;;;;2.88;96.30;99822.57;1781065;78;21076;-78
2022/11/25 11:11:21;;;;;;;60.40;30.57;;;;;;;2.97;96.39;99825.89;1752898;80;20995;-76
2022/11/25 11:13:49;;;;;;;63.63;31.77;;;;;;;2.96;95.88;99828.07;1751326;80;21098;-76
2022/11/25 11:16:36;;;;;;;64.22;32.15;;;;;;;2.94;95.60;99828.52;1726224;80;20962;-77
2022/11/25 11:19:04;;;;;;;64.62;30.30;;;;;;;2.90;95.59;99824.70;1747277;81;21552;-76
2022/11/25 11:21:34;;;;;;;55.10;28.85;;;;;;;2.88;95.52;99823.86;1724064;81;21009;-76
2022/11/25 11:24:06;;;;;;;56.35;31.50;;;;;;;2.79;95.15;99822.70;1701818;83;21076;-75
2022/11/25 11:26:35;;;;;;;58.40;30.50;;;;;;;2.69;95.61;99821.16;1718710;80;21129;-76
2022/11/25 11:29:15;;;;;;;57.78;31.60;;;;;;;2.76;96.00;99827.91;1706333;82;21021;-75
2022/11/25 11:31:55;;;;;;;62.33;31.05;;;;;;;2.78;95.76;99831.33;1739194;81;21590;-76
2022/11/25 11:35:05;;;;;;;59.85;30.80;;;;;;;2.79;95.49;99830.45;1720530;81;21048;-77
2022/11/25 11:37:45;;;;;;;50.43;28.83;;;;;;;2.72;94.95;99830.54;1749035;80;21064;-76
2022/11/25 11:40:31;;;;;;;53.35;28.20;;;;;;;2.68;95.16;99829.73;1751681;80;21955;-75
2022/11/25 11:43:20;;;;;;;55.80;30.02;;;;;;;2.63;95.01;99837.97;1750171;80;20988;-76
2022/11/25 11:46:13;;;;;;;63.83;31.82;;;;;;;2.57;95.57;99839.34;1732886;81;21084;-73
2022/11/25 11:48:51;;;;;;;59.77;31.35;;;;;;;2.64;96.55;99837.11;1737757;81;20984;-76
2022/11/25 11:51:40;;;;;;;59.90;31.70;;;;;;;2.68;96.13;99840.05;1639762;85;21110;-75
2022/11/25 11:54:24;;;;;;;59.55;31.95;;;;;;;2.71;96.54;99832.27;1624652;86;21122;-78
2022/11/25 11:57:33;;;;;;;60.15;31.35;;;;;;;2.83;96.98;99834.70;1641110;84;21020;-77
2022/11/25 12:00:21;;;;;;;52.38;29.00;;;;;;;2.88;96.55;99834.62;1611768;86;21110;-76
2022/11/25 12:03:14;;;;;;;61.40;31.65;;;;;;;2.82;96.45;99840.72;1623472;85;21184;-76
2022/11/25 12:05:41;;;;;;;60.75;31.17;;;;;;;2.80;96.11;99842.48;1639008;86;21648;-76
2022/11/25 12:08:24;;;;;;;64.47;31.82;;;;;;;2.80;95.78;99846.77;1594956;88;21545;-77
2022/11/25 12:11:01;;;;;;;59.45;30.52;;;;;;;2.81;96.11;99848.05;1593357;87;21194;-77
2022/11/25 12:13:48;;;;;;;59.95;33.20;;;;;;;2.83;96.31;99845.02;1592785;88;22447;-76
2022/11/25 12:16:40;;;;;;;61.70;32.20;;;;;;;2.83;96.08;99849.30;1591888;88;21217;-76
2022/11/25 12:19:26;;;;;;;53.90;31.23;;;;;;;2.84;96.25;99851.88;1620173;87;21155;-75
2022/11/25 12:22:19;;;;;;;62.40;33.50;;;;;;;2.89;96.54;99861.69;1542658;91;21664;-76
2022/11/25 12:25:18;;;;;;;63.20;33.55;;;;;;;2.86;96.21;99861.73;1541855;91;21935;-76
2022/11/25 12:27:48;;;;;;;;;;;;;;;2.90;96.45;99865.12;1553539;90;21642;-77
2022/11/25 12:30:18;;;;;;;56.80;30.95;;;;;;;2.99;96.67;99862.84;1585043;88;20233;-77
2022/11/25 12:33:09;;;;;;;63.13;33.18;;;;;;;3.01;96.54;99863.69;1584946;87;21299;-77